Time;durP1;ratioP1;P1;durP2;ratioP2;P2;SDS_P1;SDS_P2;PMS_P1;PMS_P2;Temp;Humidity;BMP_temperature;BMP_pressure;BME280_temperature;BME280_humidity;BME280_pressure;Samples;Min_cycle;Max_cycle;Signal;HPM_P1;HPM_P2
2021/12/29 08:32:13;;;;;;;8.27;1.97;;;7.00;99.90;;;;;;5137483;27;20270;-79
2021/12/29 08:34:39;;;;;;;7.93;2.00;;;7.20;99.90;;;;;;5137604;28;20256;-80
2021/12/29 08:37:05;;;;;;;4.00;1.80;;;7.10;99.90;;;;;;5126003;28;20220;-82
2021/12/29 08:39:31;;;;;;;7.77;1.83;;;7.10;99.90;;;;;;5136610;28;20196;-80
2021/12/29 08:41:56;;;;;;;8.80;2.33;;;7.10;99.90;;;;;;5139780;27;20167;-82
2021/12/29 08:44:22;;;;;;;8.37;2.50;;;7.00;99.90;;;;;;5142008;27;20265;-82
2021/12/29 08:46:48;;;;;;;6.23;1.67;;;6.90;99.90;;;;;;5144501;27;20227;-79
2021/12/29 08:49:14;;;;;;;7.43;2.07;;;7.10;99.90;;;;;;5142133;28;20186;-82
2021/12/29 08:51:41;;;;;;;5.67;2.57;;;7.10;99.90;;;;;;5137520;27;20285;-80
2021/12/29 08:54:08;;;;;;;7.93;2.90;;;7.10;99.90;;;;;;5138991;27;20170;-80
2021/12/29 08:56:34;;;;;;;5.07;2.10;;;7.10;99.90;;;;;;5137536;28;20285;-80
2021/12/29 08:58:59;;;;;;;9.17;2.20;;;7.30;99.90;;;;;;5139119;27;20299;-81
2021/12/29 09:01:26;;;;;;;4.33;1.77;;;7.30;99.90;;;;;;5138136;28;20230;-81
2021/12/29 09:03:52;;;;;;;3.43;2.07;;;7.20;99.90;;;;;;5137829;28;20182;-81
2021/12/29 09:06:18;;;;;;;6.47;1.70;;;7.10;99.90;;;;;;5138091;28;20173;-80
2021/12/29 09:08:45;;;;;;;3.30;1.53;;;7.10;99.90;;;;;;5137552;28;20272;-80
2021/12/29 09:11:11;;;;;;;7.50;1.87;;;7.50;99.90;;;;;;5138698;28;20590;-81
2021/12/29 09:13:37;;;;;;;5.73;2.10;;;8.10;99.90;;;;;;5139112;27;20174;-80
2021/12/29 09:16:04;;;;;;;7.60;1.67;;;8.20;99.90;;;;;;5136616;28;20267;-80
2021/12/29 09:18:31;;;;;;;5.73;1.83;;;8.40;99.90;;;;;;5135337;28;20609;-81
2021/12/29 09:21:05;;;;;;;5.87;2.10;;;8.70;99.90;;;;;;5141546;27;20181;-81
2021/12/29 09:23:31;;;;;;;6.47;1.53;;;8.30;99.90;;;;;;5138840;27;20151;-80
2021/12/29 09:25:57;;;;;;;5.03;1.50;;;8.30;99.90;;;;;;5138434;27;20176;-80
2021/12/29 09:28:23;;;;;;;6.40;1.30;;;8.30;99.90;;;;;;5137785;28;20201;-80
2021/12/29 09:30:50;;;;;;;3.73;1.20;;;8.40;99.90;;;;;;5136998;28;20219;-80
2021/12/29 09:33:19;;;;;;;5.63;1.30;;;8.30;99.90;;;;;;5137745;27;20167;-80
2021/12/29 09:35:47;;;;;;;7.97;1.33;;;8.10;99.90;;;;;;5138801;27;20228;-80
2021/12/29 09:38:14;;;;;;;3.87;1.10;;;8.00;99.90;;;;;;5138177;28;20252;-80
2021/12/29 09:40:41;;;;;;;3.97;1.20;;;8.10;99.90;;;;;;5139159;27;20188;-80
2021/12/29 09:43:07;;;;;;;6.83;1.33;;;8.10;99.90;;;;;;5128658;27;20178;-81
2021/12/29 09:45:38;;;;;;;9.63;1.60;;;8.20;99.90;;;;;;5124240;28;20207;-80
2021/12/29 09:48:05;;;;;;;5.20;1.33;;;8.30;99.90;;;;;;5124978;27;20199;-80
2021/12/29 09:50:31;;;;;;;9.93;1.87;;;8.60;99.90;;;;;;5124477;28;20565;-81
2021/12/29 09:52:58;;;;;;;6.53;1.73;;;8.50;99.90;;;;;;5124755;28;20172;-81
2021/12/29 09:55:25;;;;;;;5.97;1.60;;;8.40;99.90;;;;;;5123670;28;20168;-81
2021/12/29 09:57:53;;;;;;;11.53;2.60;;;8.20;99.90;;;;;;5123019;28;20203;-80
2021/12/29 10:00:33;;;;;;;8.87;2.83;;;8.00;99.90;;;;;;5124588;28;20227;-80
2021/12/29 10:03:06;;;;;;;15.27;3.63;;;7.90;99.90;;;;;;5121332;28;20175;-80
2021/12/29 10:05:32;;;;;;;15.27;4.13;;;7.80;99.90;;;;;;5122838;28;20192;-80
2021/12/29 10:08:03;;;;;;;8.33;2.00;;;7.80;99.90;;;;;;5123793;28;20200;-79
2021/12/29 10:10:29;;;;;;;9.17;2.10;;;7.80;99.90;;;;;;5121576;28;20201;-80
2021/12/29 10:12:56;;;;;;;5.83;1.30;;;7.80;99.90;;;;;;5120625;28;20266;-80
2021/12/29 10:15:28;;;;;;;6.93;1.93;;;7.80;99.90;;;;;;5123512;28;20176;-79
2021/12/29 10:18:10;;;;;;;12.63;2.90;;;7.80;99.90;;;;;;5122254;28;20180;-79
2021/12/29 10:21:01;;;;;;;5.97;1.83;;;7.80;99.90;;;;;;5121737;28;20209;-80
2021/12/29 10:23:34;;;;;;;9.00;1.80;;;7.90;99.90;;;;;;5121912;27;20177;-80
2021/12/29 10:26:15;;;;;;;6.63;1.73;;;7.80;99.90;;;;;;5121103;28;20184;-80
2021/12/29 10:28:44;;;;;;;9.73;1.90;;;7.80;99.90;;;;;;5122281;28;20251;-80
2021/12/29 10:31:15;;;;;;;5.47;1.80;;;7.80;99.90;;;;;;5120683;28;20346;-80
2021/12/29 10:33:55;;;;;;;7.93;1.60;;;7.70;99.90;;;;;;5122428;28;20168;-79
2021/12/29 10:36:28;;;;;;;6.97;2.53;;;7.90;99.90;;;;;;5125280;28;20160;-79
2021/12/29 10:38:59;;;;;;;10.20;2.43;;;7.90;99.90;;;;;;5127047;28;20687;-79
2021/12/29 10:41:26;;;;;;;4.17;2.13;;;7.90;99.90;;;;;;5125814;28;20198;-79
2021/12/29 10:44:04;;;;;;;5.97;2.10;;;7.90;99.90;;;;;;5124865;28;20175;-80
2021/12/29 10:46:33;;;;;;;9.77;2.20;;;7.90;99.90;;;;;;5120073;28;20228;-79
2021/12/29 10:49:02;;;;;;;11.03;2.50;;;8.00;99.90;;;;;;5120377;28;20580;-82
2021/12/29 10:51:42;;;;;;;7.83;1.70;;;8.10;99.90;;;;;;5119684;27;20203;-79
2021/12/29 10:54:15;;;;;;;5.17;1.83;;;8.10;99.90;;;;;;5119219;28;20152;-80
2021/12/29 10:56:44;;;;;;;6.40;2.13;;;8.20;99.90;;;;;;5118679;28;20196;-80
2021/12/29 10:59:31;;;;;;;6.30;1.90;;;8.20;99.90;;;;;;5119496;28;20198;-79
2021/12/29 11:01:57;;;;;;;8.90;2.20;;;8.20;99.90;;;;;;5117313;28;20256;-80
2021/12/29 11:04:24;;;;;;;6.40;1.77;;;8.30;99.90;;;;;;5118741;28;20226;-80
2021/12/29 11:06:51;;;;;;;7.50;1.80;;;8.40;99.90;;;;;;5116841;28;20201;-80
2021/12/29 11:09:36;;;;;;;5.27;1.30;;;8.30;99.90;;;;;;5116167;28;20176;-79
2021/12/29 11:12:10;;;;;;;7.30;2.23;;;8.30;99.90;;;;;;5114839;28;20203;-80
2021/12/29 11:14:42;;;;;;;8.00;1.60;;;8.30;99.90;;;;;;5116274;28;20164;-79
2021/12/29 11:17:12;;;;;;;8.23;1.93;;;8.50;99.90;;;;;;5116831;28;20254;-80
2021/12/29 11:19:43;;;;;;;5.17;1.90;;;8.60;99.90;;;;;;5126139;28;20556;-79
2021/12/29 11:22:12;;;;;;;4.40;1.30;;;8.70;99.90;;;;;;5120567;28;20187;-80
2021/12/29 11:24:39;;;;;;;8.13;2.80;;;8.50;99.90;;;;;;5119326;28;20187;-80
2021/12/29 11:27:18;;;;;;;5.03;1.50;;;8.50;99.90;;;;;;5118936;28;20203;-80
2021/12/29 11:29:48;;;;;;;4.90;1.20;;;8.60;99.90;;;;;;5120093;27;20157;-80
2021/12/29 11:32:21;;;;;;;3.13;1.23;;;8.70;99.90;;;;;;5119334;28;20189;-79
2021/12/29 11:35:02;;;;;;;9.30;1.70;;;8.60;99.90;;;;;;5120187;28;20602;-80
2021/12/29 11:37:28;;;;;;;7.27;1.87;;;8.60;99.90;;;;;;5118549;28;20193;-80
2021/12/29 11:39:54;;;;;;;3.27;1.37;;;8.70;99.90;;;;;;5119477;28;20183;-80
2021/12/29 11:42:20;;;;;;;6.30;2.47;;;8.70;99.90;;;;;;5118254;28;20180;-80
2021/12/29 11:44:46;;;;;;;6.40;2.57;;;8.70;99.90;;;;;;5120765;28;20173;-80
2021/12/29 11:47:13;;;;;;;6.60;3.03;;;8.70;99.90;;;;;;5119369;28;20206;-80
2021/12/29 11:49:39;;;;;;;4.20;1.57;;;8.80;99.90;;;;;;5122256;28;20163;-80
2021/12/29 11:52:12;;;;;;;2.70;1.27;;;8.80;99.90;;;;;;5122264;28;20214;-80
2021/12/29 11:55:04;;;;;;;5.10;2.37;;;8.70;99.90;;;;;;5123964;28;20519;-80
2021/12/29 11:57:31;;;;;;;5.60;1.30;;;8.60;99.90;;;;;;5122652;28;20187;-80
2021/12/29 12:00:12;;;;;;;4.83;1.77;;;8.60;99.90;;;;;;5121450;28;20200;-80
2021/12/29 12:02:40;;;;;;;3.90;1.17;;;8.50;99.90;;;;;;5120809;28;20207;-80
2021/12/29 12:05:11;;;;;;;4.00;1.40;;;8.50;99.90;;;;;;5119799;28;20241;-81
2021/12/29 12:07:38;;;;;;;4.10;1.50;;;8.40;99.90;;;;;;5121176;28;20699;-80
2021/12/29 12:10:11;;;;;;;4.53;1.37;;;8.30;99.90;;;;;;5120471;28;20165;-80
2021/12/29 12:12:44;;;;;;;3.33;1.77;;;8.30;99.90;;;;;;5120111;28;20159;-80
2021/12/29 12:15:12;;;;;;;7.97;3.17;;;8.40;99.90;;;;;;5120409;28;20201;-80
2021/12/29 12:17:38;;;;;;;5.27;1.90;;;8.40;99.90;;;;;;5121486;28;20188;-81
2021/12/29 12:20:16;;;;;;;4.03;1.90;;;8.30;99.90;;;;;;5121512;28;20234;-80
2021/12/29 12:22:49;;;;;;;7.10;3.33;;;8.30;99.90;;;;;;5120329;28;20662;-80
2021/12/29 12:25:44;;;;;;;5.70;2.57;;;8.30;99.90;;;;;;5121417;28;20187;-80
2021/12/29 12:28:23;;;;;;;5.60;2.07;;;8.30;99.90;;;;;;5120702;27;20221;-82
2021/12/29 12:30:53;;;;;;;3.90;1.60;;;8.20;99.90;;;;;;5124689;28;20302;-81
2021/12/29 12:33:27;;;;;;;5.53;1.47;;;8.30;99.90;;;;;;5121951;28;20221;-81
2021/12/29 12:35:54;;;;;;;9.53;4.43;;;8.30;99.90;;;;;;5120670;28;20221;-81
2021/12/29 12:38:28;;;;;;;3.77;1.60;;;8.30;99.90;;;;;;5119946;28;20222;-81
2021/12/29 12:41:06;;;;;;;2.57;1.20;;;8.30;99.90;;;;;;5119625;28;20252;-81
2021/12/29 12:43:34;;;;;;;3.73;1.30;;;8.20;99.90;;;;;;5124290;28;20191;-80
2021/12/29 12:45:59;;;;;;;2.93;1.30;;;8.10;99.90;;;;;;5118972;28;20181;-81
2021/12/29 12:48:33;;;;;;;3.03;1.57;;;8.00;99.90;;;;;;5119336;28;20546;-81
2021/12/29 12:51:13;;;;;;;2.27;1.20;;;8.00;99.90;;;;;;5119388;28;20200;-81
2021/12/29 12:53:41;;;;;;;0.97;0.90;;;8.00;99.90;;;;;;5119902;28;20263;-81
2021/12/29 12:56:11;;;;;;;2.37;1.03;;;8.00;99.90;;;;;;5121951;28;20173;-80
2021/12/29 12:58:39;;;;;;;2.77;0.90;;;7.90;99.90;;;;;;5125517;28;20582;-80
2021/12/29 13:01:15;;;;;;;3.97;1.20;;;8.00;99.90;;;;;;5119624;28;20176;-80
2021/12/29 13:03:42;;;;;;;1.83;1.10;;;8.00;99.90;;;;;;5117437;28;20170;-80
2021/12/29 13:06:16;;;;;;;2.70;0.93;;;8.00;99.90;;;;;;5118494;28;20204;-80
2021/12/29 13:08:44;;;;;;;2.20;1.20;;;8.00;99.90;;;;;;5119137;28;20208;-80
2021/12/29 13:11:13;;;;;;;0.90;0.80;;;8.00;99.90;;;;;;5117004;28;20204;-80
2021/12/29 13:13:43;;;;;;;1.90;1.10;;;8.00;99.90;;;;;;5117590;28;20180;-80
2021/12/29 13:16:13;;;;;;;3.00;1.10;;;8.00;99.90;;;;;;5117396;28;20313;-80
2021/12/29 13:18:40;;;;;;;2.00;1.00;;;8.10;99.90;;;;;;5127290;28;20179;-81
2021/12/29 13:21:11;;;;;;;4.10;1.00;;;8.00;99.90;;;;;;5120806;28;20180;-80
2021/12/29 13:23:38;;;;;;;2.90;1.20;;;7.90;99.90;;;;;;5122419;28;20259;-81
2021/12/29 13:26:05;;;;;;;3.60;1.30;;;7.80;99.90;;;;;;5122070;28;20168;-81
2021/12/29 13:28:31;;;;;;;1.60;0.80;;;7.80;99.90;;;;;;5122455;27;20206;-80
2021/12/29 13:31:10;;;;;;;3.13;2.23;;;7.80;99.90;;;;;;5122785;28;20204;-80
2021/12/29 13:33:40;;;;;;;2.97;1.20;;;7.80;99.90;;;;;;5122145;28;20221;-80
2021/12/29 13:36:07;;;;;;;3.53;1.17;;;7.70;99.90;;;;;;5121393;28;20173;-80
2021/12/29 13:38:34;;;;;;;4.20;1.60;;;7.70;99.90;;;;;;5120702;28;20189;-81
2021/12/29 13:41:07;;;;;;;1.50;1.20;;;7.70;99.90;;;;;;5121240;28;20212;-80
2021/12/29 13:43:39;;;;;;;4.30;1.50;;;7.70;99.90;;;;;;5122997;28;20603;-80
2021/12/29 13:46:24;;;;;;;3.57;1.87;;;7.60;99.90;;;;;;5120689;28;20173;-81
2021/12/29 13:48:52;;;;;;;2.73;1.50;;;7.60;99.90;;;;;;5121062;28;20252;-78
2021/12/29 13:51:22;;;;;;;5.00;1.27;;;7.60;99.90;;;;;;5120429;27;20294;-79
2021/12/29 13:54:00;;;;;;;1.77;1.20;;;7.60;99.90;;;;;;5119161;28;20216;-79
2021/12/29 13:56:25;;;;;;;1.83;1.30;;;7.60;99.90;;;;;;5118979;28;20252;-79
2021/12/29 13:59:14;;;;;;;4.53;1.33;;;7.60;99.90;;;;;;5119965;28;20176;-79
2021/12/29 14:01:44;;;;;;;2.20;1.20;;;7.60;99.90;;;;;;5118805;28;20192;-79
2021/12/29 14:04:14;;;;;;;3.70;1.50;;;7.60;99.90;;;;;;5120050;28;20171;-80
2021/12/29 14:06:40;;;;;;;3.10;1.90;;;7.60;99.90;;;;;;5120269;28;20203;-79
2021/12/29 14:09:09;;;;;;;2.60;2.03;;;7.60;99.90;;;;;;5120471;28;20547;-80
2021/12/29 14:11:35;;;;;;;1.50;1.10;;;7.60;99.90;;;;;;5121554;28;20567;-80
2021/12/29 14:14:06;;;;;;;1.23;0.87;;;7.60;99.90;;;;;;5119301;28;20183;-79
2021/12/29 14:16:34;;;;;;;2.37;0.87;;;7.60;99.90;;;;;;5118480;28;20188;-79
2021/12/29 14:19:04;;;;;;;2.70;1.03;;;7.60;99.90;;;;;;5117053;28;20548;-80
2021/12/29 14:21:36;;;;;;;5.63;2.70;;;7.60;99.90;;;;;;5118305;28;20159;-80
2021/12/29 14:24:07;;;;;;;9.20;4.13;;;7.60;99.90;;;;;;5116139;28;20180;-80
2021/12/29 14:26:45;;;;;;;7.70;3.63;;;7.60;99.90;;;;;;5117079;28;20283;-80
2021/12/29 14:29:14;;;;;;;3.50;2.23;;;7.60;99.90;;;;;;5118550;28;20160;-80
2021/12/29 14:31:42;;;;;;;2.70;1.30;;;7.60;99.90;;;;;;5117990;28;20286;-80
2021/12/29 14:34:16;;;;;;;1.93;1.50;;;7.60;99.90;;;;;;5118328;28;20182;-79
2021/12/29 14:36:48;;;;;;;1.10;0.70;;;7.60;99.90;;;;;;5119436;28;20191;-79
2021/12/29 14:39:17;;;;;;;1.80;0.83;;;7.60;99.90;;;;;;5118964;28;20165;-79
2021/12/29 14:41:44;;;;;;;1.50;1.13;;;7.60;99.90;;;;;;5117895;28;20548;-80
2021/12/29 14:44:15;;;;;;;1.47;0.90;;;7.50;99.90;;;;;;5119574;28;20229;-80
2021/12/29 14:46:56;;;;;;;1.40;1.10;;;7.50;99.90;;;;;;5120070;28;20665;-80
2021/12/29 14:49:31;;;;;;;1.23;1.13;;;7.60;99.90;;;;;;5118060;28;20489;-80
2021/12/29 14:51:58;;;;;;;1.80;1.13;;;7.50;99.90;;;;;;5118309;28;20599;-80
2021/12/29 14:54:36;;;;;;;5.87;2.87;;;7.50;99.90;;;;;;5118402;28;20179;-79
2021/12/29 14:57:03;;;;;;;2.37;1.87;;;7.50;99.90;;;;;;5120257;28;20202;-80
2021/12/29 14:59:34;;;;;;;1.93;1.23;;;7.50;99.90;;;;;;5119997;28;20175;-79
2021/12/29 15:02:24;;;;;;;1.50;1.40;;;7.50;99.90;;;;;;5118444;28;20183;-80
2021/12/29 15:05:08;;;;;;;2.97;1.70;;;7.50;99.90;;;;;;5120096;28;20163;-81
2021/12/29 15:07:36;;;;;;;3.17;1.57;;;7.50;99.90;;;;;;5120326;28;20560;-80
2021/12/29 15:10:11;;;;;;;2.37;1.63;;;7.50;99.90;;;;;;5120211;28;20581;-80
2021/12/29 15:12:38;;;;;;;4.53;1.90;;;7.50;99.90;;;;;;5117836;28;20171;-80
2021/12/29 15:15:18;;;;;;;3.13;2.07;;;7.50;99.90;;;;;;5118638;28;20180;-80
2021/12/29 15:18:08;;;;;;;3.63;1.87;;;7.40;99.90;;;;;;5127383;28;20191;-79
2021/12/29 15:20:37;;;;;;;2.70;1.70;;;7.40;99.90;;;;;;5125078;27;20154;-81
2021/12/29 15:23:05;;;;;;;1.90;1.43;;;7.40;99.90;;;;;;5124137;28;20177;-81
2021/12/29 15:25:32;;;;;;;1.67;1.30;;;7.40;99.90;;;;;;5119187;28;20255;-80
2021/12/29 15:28:00;;;;;;;2.40;1.27;;;7.30;99.90;;;;;;5119495;28;20197;-81
2021/12/29 15:30:31;;;;;;;2.40;1.33;;;7.30;99.90;;;;;;5117121;28;20272;-80
2021/12/29 15:32:57;;;;;;;1.97;1.30;;;7.30;99.90;;;;;;5116907;28;20217;-81
2021/12/29 15:35:23;;;;;;;3.13;1.27;;;7.20;99.90;;;;;;5116411;28;20175;-80
2021/12/29 15:37:49;;;;;;;1.70;1.20;;;7.20;99.90;;;;;;5117789;28;20187;-80
2021/12/29 15:40:17;;;;;;;1.57;1.30;;;7.10;99.90;;;;;;5116885;27;20239;-81
2021/12/29 15:42:43;;;;;;;2.03;1.63;;;7.00;99.90;;;;;;5116242;28;20176;-81
2021/12/29 15:45:13;;;;;;;2.63;1.40;;;7.00;99.90;;;;;;5117637;28;20193;-81
2021/12/29 15:47:41;;;;;;;12.30;9.13;;;7.00;99.90;;;;;;5117576;28;20191;-81
2021/12/29 15:50:07;;;;;;;10.33;9.03;;;7.00;99.90;;;;;;5115947;28;20179;-81
2021/12/29 15:52:33;;;;;;;4.77;4.33;;;7.00;99.90;;;;;;5116304;28;20410;-81
2021/12/29 15:54:59;;;;;;;1.37;1.20;;;6.90;99.90;;;;;;5116247;28;20194;-81
2021/12/29 15:57:26;;;;;;;2.60;1.33;;;6.90;99.90;;;;;;5116877;27;20196;-81
2021/12/29 15:59:53;;;;;;;1.53;1.43;;;6.90;99.90;;;;;;5117405;28;20225;-81
2021/12/29 16:02:19;;;;;;;1.87;1.30;;;6.90;99.90;;;;;;5115509;28;20589;-81
2021/12/29 16:04:44;;;;;;;1.73;1.53;;;6.80;99.90;;;;;;5116173;28;20824;-81
2021/12/29 16:07:10;;;;;;;1.83;1.37;;;6.80;99.90;;;;;;5115649;28;20200;-81
2021/12/29 16:09:37;;;;;;;1.73;1.47;;;6.80;99.90;;;;;;5115699;28;20175;-81
2021/12/29 16:12:04;;;;;;;4.23;2.50;;;6.80;99.90;;;;;;5117144;28;20207;-81
2021/12/29 16:14:29;;;;;;;2.40;1.60;;;6.70;99.90;;;;;;5116159;28;20167;-81
2021/12/29 16:16:55;;;;;;;1.63;1.27;;;6.70;99.90;;;;;;5117274;28;20192;-81
2021/12/29 16:19:21;;;;;;;2.90;2.10;;;6.70;99.90;;;;;;5117808;28;20700;-81
2021/12/29 16:21:46;;;;;;;10.57;7.43;;;6.70;99.90;;;;;;5116153;28;20263;-81
2021/12/29 16:24:12;;;;;;;5.40;4.50;;;6.60;99.90;;;;;;5118203;28;20179;-81
2021/12/29 16:26:38;;;;;;;2.43;1.97;;;6.60;99.90;;;;;;5116720;28;20609;-81
2021/12/29 16:29:04;;;;;;;1.93;1.60;;;6.50;99.90;;;;;;5118169;28;20176;-82
2021/12/29 16:31:33;;;;;;;3.67;2.63;;;6.50;99.90;;;;;;5118086;28;20721;-81
2021/12/29 16:34:00;;;;;;;5.13;1.60;;;6.50;99.90;;;;;;5116696;28;20171;-81
2021/12/29 16:36:27;;;;;;;2.77;2.10;;;6.50;99.90;;;;;;5116379;28;20429;-81
2021/12/29 16:38:54;;;;;;;2.17;1.97;;;6.40;99.90;;;;;;5116246;28;20263;-81
2021/12/29 16:41:21;;;;;;;4.40;2.67;;;6.40;99.90;;;;;;5115715;28;20449;-81
2021/12/29 16:43:46;;;;;;;2.00;1.70;;;6.40;99.90;;;;;;5117157;28;20254;-81
2021/12/29 16:46:12;;;;;;;3.20;2.20;;;6.40;99.90;;;;;;5116325;28;20441;-83
2021/12/29 16:48:38;;;;;;;3.00;1.90;;;6.40;99.90;;;;;;5118826;28;20251;-81
2021/12/29 16:51:04;;;;;;;2.27;1.87;;;6.40;99.90;;;;;;5119019;28;20188;-81
2021/12/29 16:53:30;;;;;;;2.93;1.80;;;6.40;99.90;;;;;;5121823;28;20176;-82
2021/12/29 16:55:56;;;;;;;8.93;7.13;;;6.40;99.90;;;;;;5122131;28;20914;-80
2021/12/29 16:58:23;;;;;;;2.30;2.10;;;6.40;99.90;;;;;;5121186;28;20259;-81
2021/12/29 17:00:49;;;;;;;2.47;1.73;;;6.40;99.90;;;;;;5122417;28;20175;-81
2021/12/29 17:03:15;;;;;;;2.47;2.00;;;6.40;99.90;;;;;;5122669;28;20645;-81
2021/12/29 17:05:41;;;;;;;2.90;2.30;;;6.40;99.90;;;;;;5120996;28;20423;-81
2021/12/29 17:08:09;;;;;;;3.87;3.07;;;6.40;99.90;;;;;;5121546;28;20593;-81
2021/12/29 17:10:35;;;;;;;2.97;2.30;;;6.40;99.90;;;;;;5120791;28;20777;-81
2021/12/29 17:13:01;;;;;;;3.73;2.43;;;6.40;99.90;;;;;;5119527;28;20425;-81
2021/12/29 17:15:28;;;;;;;3.97;2.83;;;6.40;99.90;;;;;;5120133;28;20267;-81
2021/12/29 17:17:53;;;;;;;8.97;6.37;;;6.30;99.90;;;;;;5123317;28;20417;-81
2021/12/29 17:20:21;;;;;;;2.77;2.20;;;6.40;99.90;;;;;;5124909;28;20448;-81
2021/12/29 17:22:47;;;;;;;4.43;2.20;;;6.40;99.90;;;;;;5122746;28;20708;-81
2021/12/29 17:25:14;;;;;;;6.17;3.93;;;6.30;99.90;;;;;;5124225;28;20437;-81
2021/12/29 17:27:41;;;;;;;9.20;3.93;;;6.30;99.90;;;;;;5121744;28;20192;-81
2021/12/29 17:30:09;;;;;;;2.30;1.80;;;6.30;99.90;;;;;;5121334;28;20451;-82
2021/12/29 17:32:36;;;;;;;3.73;2.70;;;6.30;99.90;;;;;;5120464;28;20171;-81
2021/12/29 17:35:04;;;;;;;1.67;1.57;;;6.30;99.90;;;;;;5120276;28;20470;-80
2021/12/29 17:37:29;;;;;;;4.63;3.50;;;6.30;99.90;;;;;;5120884;28;20442;-81
2021/12/29 17:39:56;;;;;;;2.60;2.40;;;6.30;99.90;;;;;;5125778;28;20406;-82
2021/12/29 17:42:22;;;;;;;5.10;3.80;;;6.30;99.90;;;;;;5125666;28;20637;-81
2021/12/29 17:44:48;;;;;;;2.03;1.83;;;6.30;99.90;;;;;;5126194;28;20178;-81
2021/12/29 17:47:13;;;;;;;2.17;1.60;;;6.30;99.90;;;;;;5125643;28;20223;-82
2021/12/29 17:49:39;;;;;;;10.33;6.93;;;6.30;99.90;;;;;;5124485;28;20175;-82
2021/12/29 17:52:05;;;;;;;4.70;3.17;;;6.40;99.90;;;;;;5122776;28;20202;-81
2021/12/29 17:54:32;;;;;;;7.37;6.03;;;6.30;99.90;;;;;;5123841;28;20176;-82
2021/12/29 17:56:58;;;;;;;3.77;3.17;;;6.40;99.90;;;;;;5122288;28;20195;-82
2021/12/29 17:59:26;;;;;;;3.57;3.20;;;6.40;99.90;;;;;;5122161;28;20481;-82
2021/12/29 18:01:52;;;;;;;3.00;2.70;;;;;;;;;;5085339;28;20610;-83
2021/12/29 18:04:18;;;;;;;3.20;2.20;;;6.40;99.90;;;;;;5105966;28;20431;-82
2021/12/29 18:06:43;;;;;;;3.17;2.70;;;6.40;99.90;;;;;;5122011;28;20430;-82
2021/12/29 18:09:09;;;;;;;3.13;2.33;;;6.40;99.90;;;;;;5122193;28;20172;-82
2021/12/29 18:11:36;;;;;;;5.37;2.83;;;6.50;99.90;;;;;;5123068;28;20732;-82
2021/12/29 18:14:02;;;;;;;3.20;2.50;;;6.40;99.90;;;;;;5124338;28;20231;-82
2021/12/29 18:16:28;;;;;;;4.90;2.43;;;6.50;99.90;;;;;;5124060;28;20246;-82
2021/12/29 18:18:54;;;;;;;3.90;2.00;;;6.60;99.90;;;;;;5121843;28;20645;-82
2021/12/29 18:21:20;;;;;;;3.40;2.27;;;6.60;99.90;;;;;;5122231;28;20431;-81
2021/12/29 18:23:45;;;;;;;2.67;2.30;;;6.60;99.90;;;;;;5120623;28;20176;-81
2021/12/29 18:26:11;;;;;;;3.03;2.67;;;6.60;99.90;;;;;;5119578;28;20520;-81
2021/12/29 18:28:39;;;;;;;2.93;2.33;;;6.60;99.90;;;;;;5126436;28;20180;-82
2021/12/29 18:31:05;;;;;;;3.77;2.77;;;6.60;99.90;;;;;;5121126;28;20211;-82
2021/12/29 18:33:31;;;;;;;4.47;3.13;;;6.60;99.90;;;;;;5100318;28;20176;-82
2021/12/29 18:35:57;;;;;;;4.00;3.03;;;6.60;99.90;;;;;;5102226;28;20177;-82
2021/12/29 18:38:23;;;;;;;3.10;2.40;;;6.60;99.90;;;;;;5100941;28;20200;-81
2021/12/29 18:40:49;;;;;;;2.87;2.47;;;6.60;99.90;;;;;;5110514;28;20176;-82
2021/12/29 18:43:14;;;;;;;2.53;2.33;;;6.60;99.90;;;;;;5121920;28;20185;-81
2021/12/29 18:45:40;;;;;;;2.80;2.43;;;6.60;99.90;;;;;;5122976;28;20183;-81
2021/12/29 18:48:06;;;;;;;4.47;2.63;;;6.60;99.90;;;;;;5123536;28;20192;-82
2021/12/29 18:50:32;;;;;;;2.63;2.10;;;6.60;99.90;;;;;;5122631;28;20196;-81
2021/12/29 18:52:59;;;;;;;3.07;2.30;;;6.70;99.90;;;;;;5122228;28;20525;-83
2021/12/29 18:55:26;;;;;;;3.30;2.40;;;6.70;99.90;;;;;;5120836;28;20257;-84
2021/12/29 18:57:53;;;;;;;1.90;1.70;;;6.80;99.90;;;;;;5121786;28;20436;-84
2021/12/29 19:00:19;;;;;;;2.60;1.67;;;6.70;99.90;;;;;;5120932;28;20171;-83
2021/12/29 19:02:45;;;;;;;3.33;1.47;;;6.90;99.90;;;;;;5120984;28;20172;-82
2021/12/29 19:05:13;;;;;;;2.27;1.30;;;6.90;99.90;;;;;;5119980;28;20206;-82
2021/12/29 19:07:40;;;;;;;2.37;1.77;;;6.90;99.90;;;;;;5121197;28;20191;-82
2021/12/29 19:10:07;;;;;;;3.17;1.67;;;7.00;99.90;;;;;;5121071;28;20179;-82
2021/12/29 19:12:32;;;;;;;1.80;1.40;;;7.00;99.90;;;;;;5121930;28;20637;-81
2021/12/29 19:14:58;;;;;;;1.77;1.50;;;7.10;99.90;;;;;;5120317;28;20179;-82
2021/12/29 19:17:24;;;;;;;1.90;1.33;;;7.10;99.90;;;;;;5121076;28;20206;-82
